createdAt,value
2023-01-13T00:00:39.421Z,67.75
2023-01-13T00:03:05.868Z,66.21
2023-01-13T00:05:32.345Z,66.51
2023-01-13T00:07:58.735Z,66.29
2023-01-13T00:10:25.145Z,65.91
2023-01-13T00:12:51.509Z,66.08
2023-01-13T00:15:17.896Z,65.57
2023-01-13T00:17:44.256Z,65.19
2023-01-13T00:20:11.665Z,65.17
2023-01-13T00:22:38.182Z,65.03
2023-01-13T00:25:04.626Z,65.05
2023-01-13T00:27:31.055Z,64.89
2023-01-13T00:29:57.499Z,65.58
2023-01-13T00:32:23.870Z,65.38
2023-01-13T00:34:50.307Z,65.99
2023-01-13T00:37:16.679Z,66.84
2023-01-13T00:39:43.073Z,67.45
2023-01-13T00:42:09.486Z,67.46
2023-01-13T00:44:35.851Z,67.86
2023-01-13T00:47:02.212Z,68.93
2023-01-13T00:49:28.650Z,69.67
2023-01-13T00:51:55.050Z,69.99
2023-01-13T00:54:21.452Z,69.81
2023-01-13T00:56:47.839Z,69.47
2023-01-13T00:59:14.200Z,69.93
2023-01-13T01:01:40.759Z,70.05
2023-01-13T01:04:07.207Z,70.28
2023-01-13T01:06:33.740Z,70.51
2023-01-13T01:09:00.207Z,70.43
2023-01-13T01:11:26.609Z,70.56
2023-01-13T01:13:53.020Z,70.35
2023-01-13T01:16:19.448Z,69.93
2023-01-13T01:18:45.916Z,69.61
2023-01-13T01:21:12.288Z,69.86
2023-01-13T01:23:38.644Z,69.88
2023-01-13T01:26:05.076Z,70.17
2023-01-13T01:28:31.448Z,69.96
2023-01-13T01:30:57.856Z,70.11
2023-01-13T01:33:24.287Z,70.58
2023-01-13T01:35:50.850Z,70.51
2023-01-13T01:38:17.244Z,70.26
2023-01-13T01:40:43.614Z,70.22
2023-01-13T01:43:10.061Z,70.02
2023-01-13T01:45:36.485Z,70.07
2023-01-13T01:48:02.925Z,70.12
2023-01-13T01:50:29.325Z,70.38
2023-01-13T01:52:55.676Z,70.63
2023-01-13T01:55:23.094Z,70.75
2023-01-13T01:57:49.513Z,70.53
2023-01-13T02:00:15.876Z,70.52
2023-01-13T02:02:42.311Z,70.11
2023-01-13T02:05:08.732Z,70.40
2023-01-13T02:07:35.150Z,70.38
2023-01-13T02:10:01.520Z,69.91
2023-01-13T02:12:27.904Z,70.11
2023-01-13T02:14:54.269Z,70.06
2023-01-13T02:17:20.629Z,70.08
2023-01-13T02:19:47.033Z,70.37
2023-01-13T02:22:13.503Z,70.61
2023-01-13T02:24:39.867Z,70.56
2023-01-13T02:27:06.427Z,70.80
2023-01-13T02:29:32.907Z,70.92
2023-01-13T02:31:59.268Z,70.93
2023-01-13T02:34:25.634Z,70.56
2023-01-13T02:36:52.068Z,70.60
2023-01-13T02:39:18.727Z,70.52
2023-01-13T02:41:45.136Z,70.42
2023-01-13T02:44:11.504Z,70.54
2023-01-13T02:46:37.889Z,70.77
2023-01-13T02:49:05.237Z,70.43
2023-01-13T02:51:31.662Z,70.79
2023-01-13T02:53:58.050Z,71.19
2023-01-13T02:56:24.469Z,71.47
2023-01-13T02:58:50.849Z,71.09
2023-01-13T03:01:17.348Z,71.27
2023-01-13T03:03:43.843Z,71.24
2023-01-13T03:06:10.237Z,71.81
2023-01-13T03:08:36.631Z,71.69
2023-01-13T03:11:03.112Z,72.21
2023-01-13T03:13:29.552Z,72.15
2023-01-13T03:15:55.913Z,72.01
2023-01-13T03:18:22.424Z,71.75
2023-01-13T03:20:48.814Z,72.78
2023-01-13T03:23:15.192Z,72.68
2023-01-13T03:25:41.567Z,73.56
2023-01-13T03:28:07.962Z,74.12
2023-01-13T03:30:34.604Z,75.22
2023-01-13T03:33:01.084Z,75.05
2023-01-13T03:35:27.560Z,75.57
2023-01-13T03:37:54.009Z,76.15
2023-01-13T03:40:20.396Z,76.62
2023-01-13T03:42:46.776Z,76.75
2023-01-13T03:45:13.174Z,76.83
2023-01-13T03:47:39.552Z,76.90
2023-01-13T03:50:05.931Z,77.48
2023-01-13T03:52:32.413Z,76.79
2023-01-13T03:54:58.806Z,77.18
2023-01-13T03:57:25.334Z,76.45
2023-01-13T03:59:51.850Z,76.65
2023-01-13T04:02:18.327Z,76.71
2023-01-13T04:04:44.699Z,77.94
2023-01-13T04:07:11.071Z,77.63
2023-01-13T04:09:37.511Z,78.20
2023-01-13T04:12:04.008Z,77.34
2023-01-13T04:14:30.392Z,77.28
2023-01-13T04:16:56.890Z,78.34
2023-01-13T04:19:23.316Z,79.47
2023-01-13T04:21:49.756Z,80.61
2023-01-13T04:24:16.177Z,81.53
2023-01-13T04:26:42.544Z,81.76
2023-01-13T04:29:08.971Z,82.63
2023-01-13T04:31:35.335Z,83.42
2023-01-13T04:34:01.775Z,83.80
2023-01-13T04:36:28.168Z,85.42
2023-01-13T04:38:54.690Z,86.64
2023-01-13T04:41:21.131Z,86.71
2023-01-13T04:43:47.522Z,87.82
2023-01-13T04:46:13.961Z,87.94
2023-01-13T04:48:40.433Z,89.03
2023-01-13T04:51:06.856Z,88.65
2023-01-13T04:53:34.280Z,89.13
2023-01-13T04:56:00.658Z,90.31
2023-01-13T04:58:27.101Z,90.25
2023-01-13T05:00:53.735Z,88.74
2023-01-13T05:03:20.152Z,89.33
2023-01-13T05:05:46.597Z,89.42
2023-01-13T05:08:13.095Z,90.58
2023-01-13T05:10:39.513Z,89.52
2023-01-13T05:13:05.904Z,90.11
2023-01-13T05:15:32.319Z,90.78
2023-01-13T05:17:58.823Z,91.54
2023-01-13T05:20:25.206Z,90.97
2023-01-13T05:22:51.645Z,90.99
2023-01-13T05:25:18.059Z,91.32
2023-01-13T05:27:44.482Z,90.42
2023-01-13T05:30:11.878Z,91.21
2023-01-13T05:32:38.265Z,90.70
2023-01-13T05:35:04.677Z,91.12
2023-01-13T05:37:31.068Z,91.50
2023-01-13T05:39:57.479Z,92.18
2023-01-13T05:42:23.861Z,92.30
2023-01-13T05:44:50.319Z,92.14
2023-01-13T05:47:16.704Z,91.71
2023-01-13T05:49:43.086Z,91.65
2023-01-13T05:52:09.551Z,91.70
2023-01-13T05:54:35.981Z,91.93
2023-01-13T05:57:02.359Z,91.84
2023-01-13T05:59:28.750Z,92.08
2023-01-13T06:01:55.258Z,91.68
2023-01-13T06:04:21.730Z,92.05
2023-01-13T06:06:48.172Z,91.61
2023-01-13T06:09:14.569Z,91.17
2023-01-13T06:11:41.019Z,91.82
2023-01-13T06:14:07.802Z,92.08
2023-01-13T06:16:34.245Z,92.16
2023-01-13T06:19:00.642Z,92.24
2023-01-13T06:21:27.919Z,93.03
2023-01-13T06:23:54.283Z,92.98
2023-01-13T06:26:20.907Z,92.81
2023-01-13T06:28:47.339Z,91.86
2023-01-13T06:31:13.747Z,92.80
2023-01-13T06:33:40.187Z,93.33
2023-01-13T06:36:07.604Z,93.73
2023-01-13T06:38:33.971Z,92.99
2023-01-13T06:41:00.356Z,92.58
2023-01-13T06:43:26.727Z,92.17
2023-01-13T06:45:53.085Z,92.69
2023-01-13T06:48:19.489Z,92.94
2023-01-13T06:50:45.905Z,92.96
2023-01-13T06:53:12.271Z,93.21
2023-01-13T06:55:38.714Z,94.54
2023-01-13T06:58:05.290Z,94.74
2023-01-13T07:00:31.752Z,94.50
2023-01-13T07:02:58.201Z,94.79
2023-01-13T07:05:24.644Z,94.85
2023-01-13T07:07:51.016Z,94.77
2023-01-13T07:10:17.398Z,94.85
2023-01-13T07:12:44.134Z,95.30
2023-01-13T07:15:10.661Z,94.85
2023-01-13T07:17:37.063Z,94.81
2023-01-13T07:20:03.438Z,94.97
2023-01-13T07:22:29.859Z,94.80
2023-01-13T07:24:56.230Z,94.13
2023-01-13T07:27:22.621Z,94.75
2023-01-13T07:29:49.080Z,94.50
2023-01-13T07:32:15.460Z,96.00
2023-01-13T07:34:41.835Z,95.34
2023-01-13T07:37:08.504Z,95.45
2023-01-13T07:39:34.976Z,95.88
2023-01-13T07:42:01.343Z,95.97
2023-01-13T07:44:27.785Z,96.13
2023-01-13T07:46:54.171Z,95.81
2023-01-13T07:49:20.568Z,95.92
2023-01-13T07:51:47.067Z,95.36
2023-01-13T07:54:13.449Z,96.00
2023-01-13T07:56:39.812Z,96.35
2023-01-13T07:59:06.247Z,96.34
2023-01-13T08:01:33.725Z,96.47
2023-01-13T08:04:00.214Z,95.89
2023-01-13T08:06:26.565Z,95.46
2023-01-13T08:08:53.088Z,95.49
2023-01-13T08:11:21.056Z,95.39
2023-01-13T08:13:48.596Z,94.51
2023-01-13T08:16:15.056Z,94.97
2023-01-13T08:18:41.552Z,94.44
2023-01-13T08:21:08.068Z,94.32
2023-01-13T08:23:34.467Z,94.37
2023-01-13T08:26:00.897Z,94.59
2023-01-13T08:28:27.380Z,94.20
2023-01-13T08:30:53.886Z,95.43
2023-01-13T08:33:20.356Z,95.38
2023-01-13T08:35:46.798Z,95.17
2023-01-13T08:38:13.165Z,95.48
2023-01-13T08:40:39.640Z,96.05
2023-01-13T08:43:06.028Z,96.52
2023-01-13T08:45:32.446Z,95.68
2023-01-13T08:47:59.165Z,95.53
2023-01-13T08:50:25.644Z,95.55
2023-01-13T08:52:52.047Z,94.69
2023-01-13T08:55:18.554Z,95.65
2023-01-13T08:57:44.937Z,95.67
2023-01-13T09:00:11.353Z,96.08
2023-01-13T09:02:37.729Z,95.97
2023-01-13T09:05:04.120Z,95.84
2023-01-13T09:07:30.501Z,95.34
2023-01-13T09:09:57.022Z,94.36
2023-01-13T09:12:23.412Z,94.38
2023-01-13T09:14:49.886Z,94.50
2023-01-13T09:17:16.252Z,94.72
2023-01-13T09:19:42.879Z,94.60
2023-01-13T09:22:09.558Z,93.04
2023-01-13T09:24:35.925Z,92.21
2023-01-13T09:27:02.396Z,91.59
2023-01-13T09:29:28.749Z,91.31
2023-01-13T09:31:55.239Z,91.54
2023-01-13T09:34:21.627Z,91.10
2023-01-13T09:36:48.015Z,90.98
2023-01-13T09:39:14.411Z,91.30
2023-01-13T09:41:40.978Z,90.97
2023-01-13T09:44:07.368Z,91.21
2023-01-13T09:46:34.244Z,92.28
2023-01-13T09:49:00.792Z,93.58
2023-01-13T09:51:27.290Z,93.59
2023-01-13T09:53:54.102Z,94.48
2023-01-13T09:56:20.492Z,94.33
2023-01-13T09:58:46.870Z,94.76
2023-01-13T10:01:13.323Z,93.73
2023-01-13T10:03:39.845Z,93.39
2023-01-13T10:06:06.367Z,93.88
2023-01-13T10:08:32.733Z,94.10
2023-01-13T10:10:59.125Z,93.09
2023-01-13T10:13:25.781Z,92.55
2023-01-13T10:15:52.206Z,91.71
2023-01-13T10:18:18.651Z,90.70
2023-01-13T10:20:45.165Z,92.25
2023-01-13T10:23:11.641Z,92.31
2023-01-13T10:25:38.077Z,90.65
2023-01-13T10:28:04.588Z,91.28
2023-01-13T10:30:31.055Z,90.13
2023-01-13T10:32:57.526Z,89.44
2023-01-13T10:35:23.949Z,89.32
2023-01-13T10:37:50.352Z,89.56
2023-01-13T10:40:16.802Z,90.34
2023-01-13T10:42:43.214Z,90.88
2023-01-13T10:45:09.685Z,90.34
2023-01-13T10:47:36.061Z,91.15
2023-01-13T10:50:02.494Z,91.12
2023-01-13T10:52:29.122Z,90.30
2023-01-13T10:54:55.585Z,86.34
2023-01-13T10:57:22.001Z,84.89
2023-01-13T10:59:48.428Z,85.77
2023-01-13T11:02:25.304Z,85.79
2023-01-13T11:04:52.792Z,87.37
2023-01-13T11:07:21.877Z,87.92
2023-01-13T11:09:48.264Z,88.42
2023-01-13T11:12:14.619Z,86.00
2023-01-13T11:14:41.046Z,85.30
2023-01-13T11:17:07.471Z,84.26
2023-01-13T11:19:37.957Z,83.71
2023-01-13T11:22:04.489Z,82.22
2023-01-13T11:24:30.864Z,81.88
2023-01-13T11:26:57.464Z,82.20
2023-01-13T11:29:23.823Z,81.86
2023-01-13T11:31:50.296Z,83.55
2023-01-13T11:34:16.662Z,82.77
2023-01-13T11:36:43.037Z,82.02
2023-01-13T11:39:09.454Z,83.28
2023-01-13T11:41:35.831Z,84.24
2023-01-13T11:44:03.049Z,83.18
2023-01-13T11:46:29.447Z,83.49
2023-01-13T11:48:55.922Z,86.06
2023-01-13T11:51:23.308Z,85.11
2023-01-13T11:53:50.054Z,85.62
2023-01-13T11:56:16.514Z,83.57
2023-01-13T11:58:50.786Z,83.86
2023-01-13T12:01:17.776Z,82.02
2023-01-13T12:03:44.175Z,83.73
2023-01-13T12:06:10.549Z,84.71
2023-01-13T12:08:36.987Z,83.72
2023-01-13T12:11:03.356Z,84.46
2023-01-13T12:13:29.748Z,86.72
2023-01-13T12:15:56.997Z,83.61
2023-01-13T12:18:23.404Z,81.34
2023-01-13T12:20:49.779Z,79.37
2023-01-13T12:23:16.180Z,80.29
2023-01-13T12:25:42.579Z,77.50
2023-01-13T12:28:08.984Z,75.44
2023-01-13T12:30:35.387Z,76.27
2023-01-13T12:33:01.795Z,77.08
2023-01-13T12:35:28.280Z,75.57
2023-01-13T12:37:54.684Z,77.73
2023-01-13T12:40:21.040Z,79.14
2023-01-13T12:42:47.407Z,78.63
2023-01-13T12:45:13.840Z,79.92
2023-01-13T12:47:40.247Z,80.08
2023-01-13T12:50:06.600Z,81.27
2023-01-13T12:52:32.970Z,79.31
2023-01-13T12:54:59.369Z,78.66
2023-01-13T12:57:25.842Z,81.17
2023-01-13T12:59:52.221Z,79.92
2023-01-13T13:02:18.864Z,79.09
2023-01-13T13:04:46.695Z,80.37
2023-01-13T13:07:13.088Z,76.91
2023-01-13T13:09:39.453Z,73.82
2023-01-13T13:12:05.799Z,74.09
2023-01-13T13:14:32.284Z,74.60
2023-01-13T13:16:58.691Z,74.07
2023-01-13T13:19:25.100Z,78.32
2023-01-13T13:21:51.546Z,77.18
2023-01-13T13:24:17.915Z,78.74
2023-01-13T13:26:44.318Z,76.19
2023-01-13T13:29:10.696Z,77.96
2023-01-13T13:31:37.083Z,75.71
2023-01-13T13:34:03.474Z,72.67
2023-01-13T13:36:29.875Z,76.16
2023-01-13T13:38:56.261Z,75.01
2023-01-13T13:41:22.950Z,73.00
2023-01-13T13:43:49.403Z,73.84
2023-01-13T13:46:15.812Z,73.40
2023-01-13T13:48:42.367Z,73.23
2023-01-13T13:51:11.036Z,77.25
2023-01-13T13:53:37.478Z,78.04
2023-01-13T13:56:03.861Z,79.52
2023-01-13T13:58:31.401Z,78.26
2023-01-13T14:00:57.917Z,77.85
2023-01-13T14:03:24.374Z,76.61
2023-01-13T14:05:50.821Z,76.46
2023-01-13T14:08:17.166Z,75.90
2023-01-13T14:10:43.607Z,74.82
2023-01-13T14:13:10.113Z,74.29
2023-01-13T14:15:36.554Z,72.70
2023-01-13T14:18:03.002Z,70.85
2023-01-13T14:20:29.526Z,68.98
2023-01-13T14:22:55.872Z,64.25
2023-01-13T14:25:22.385Z,59.10
2023-01-13T14:27:48.796Z,55.82
2023-01-13T14:30:15.484Z,58.23
2023-01-13T14:32:41.856Z,61.48
2023-01-13T14:35:08.250Z,56.49
2023-01-13T14:37:34.654Z,54.12
2023-01-13T14:40:01.050Z,56.40
2023-01-13T14:42:27.476Z,58.97
2023-01-13T14:44:56.132Z,57.24
2023-01-13T14:47:22.740Z,65.84
2023-01-13T14:49:49.153Z,70.83
2023-01-13T14:52:15.547Z,75.72
2023-01-13T14:54:42.019Z,78.17
2023-01-13T14:57:08.393Z,78.65
2023-01-13T14:59:34.767Z,77.87
2023-01-13T15:02:01.184Z,78.66
2023-01-13T15:04:27.609Z,79.85
2023-01-13T15:06:55.918Z,83.14
2023-01-13T15:09:22.294Z,82.74
2023-01-13T15:11:48.687Z,82.38
2023-01-13T15:14:15.081Z,80.69
2023-01-13T15:16:41.470Z,79.01
2023-01-13T15:19:07.845Z,77.81
2023-01-13T15:21:34.257Z,77.51
2023-01-13T15:24:00.683Z,78.40
2023-01-13T15:26:27.081Z,79.40
2023-01-13T15:28:53.457Z,79.65
2023-01-13T15:31:19.926Z,80.66
2023-01-13T15:33:46.361Z,80.31
2023-01-13T15:36:12.750Z,80.77
2023-01-13T15:38:39.190Z,80.89
2023-01-13T15:41:05.580Z,80.36
2023-01-13T15:43:31.954Z,80.80
2023-01-13T15:45:58.348Z,81.53
2023-01-13T15:48:24.749Z,81.30
2023-01-13T15:50:51.215Z,80.38
2023-01-13T15:53:17.992Z,79.73
2023-01-13T15:55:44.413Z,77.80
2023-01-13T15:58:10.979Z,78.23
2023-01-13T16:00:56.820Z,77.40
2023-01-13T16:03:23.518Z,74.52
2023-01-13T16:05:49.899Z,74.08
2023-01-13T16:08:16.285Z,73.25
2023-01-13T16:10:42.702Z,72.69
2023-01-13T16:13:09.120Z,72.61
2023-01-13T16:15:35.590Z,72.60
2023-01-13T16:18:01.961Z,71.43
2023-01-13T16:20:28.344Z,71.05
2023-01-13T16:22:54.787Z,69.95
2023-01-13T16:25:21.219Z,69.93
2023-01-13T16:27:47.621Z,70.36
2023-01-13T16:30:14.078Z,70.10
2023-01-13T16:32:40.489Z,70.60
2023-01-13T16:35:06.872Z,71.14
2023-01-13T16:37:33.389Z,72.17
2023-01-13T16:39:59.769Z,72.71
2023-01-13T16:42:26.185Z,74.09
2023-01-13T16:44:52.557Z,75.04
2023-01-13T16:47:18.945Z,74.41
2023-01-13T16:49:45.453Z,75.25
2023-01-13T16:52:11.837Z,74.70
2023-01-13T16:54:38.328Z,73.42
2023-01-13T16:57:04.702Z,73.82
2023-01-13T16:59:31.224Z,73.90
2023-01-13T17:01:57.648Z,74.64
2023-01-13T17:04:24.075Z,74.57
2023-01-13T17:06:50.457Z,72.97
2023-01-13T17:09:16.914Z,73.37
2023-01-13T17:11:43.305Z,73.00
2023-01-13T17:14:18.156Z,72.28
2023-01-13T17:16:45.565Z,72.24
2023-01-13T17:19:12.214Z,71.90
2023-01-13T17:21:38.878Z,72.19
2023-01-13T17:24:05.405Z,71.34
2023-01-13T17:26:34.209Z,71.39
2023-01-13T17:29:00.608Z,69.94
2023-01-13T17:31:27.401Z,68.84
2023-01-13T17:33:53.807Z,69.73
2023-01-13T17:36:20.190Z,69.17
2023-01-13T17:38:46.572Z,68.57
2023-01-13T17:41:12.936Z,68.99
2023-01-13T17:43:39.333Z,68.53
2023-01-13T17:46:05.739Z,69.29
2023-01-13T17:48:32.187Z,67.62
2023-01-13T17:50:58.550Z,67.53
2023-01-13T17:53:24.951Z,68.60
2023-01-13T17:55:51.891Z,67.34
2023-01-13T17:58:18.240Z,66.79
2023-01-13T18:00:44.596Z,64.82
2023-01-13T18:03:11.074Z,64.83
2023-01-13T18:05:37.432Z,63.22
2023-01-13T18:08:03.836Z,62.27
2023-01-13T18:10:30.224Z,62.02
2023-01-13T18:12:56.594Z,61.71
2023-01-13T18:15:23.020Z,62.18
2023-01-13T18:17:49.402Z,63.67
2023-01-13T18:20:15.830Z,64.04
2023-01-13T18:22:42.217Z,63.89
2023-01-13T18:25:08.611Z,64.10
2023-01-13T18:27:35.007Z,64.34
2023-01-13T18:30:01.462Z,63.93
2023-01-13T18:32:27.834Z,63.36
2023-01-13T18:35:04.988Z,62.58
2023-01-13T18:37:32.241Z,62.38
2023-01-13T18:39:58.648Z,62.08
2023-01-13T18:42:25.041Z,62.30
2023-01-13T18:44:51.447Z,61.83
2023-01-13T18:47:17.992Z,61.80
2023-01-13T18:49:44.449Z,62.04
2023-01-13T18:52:10.873Z,62.80
2023-01-13T18:54:37.325Z,64.59
2023-01-13T18:57:03.749Z,64.65
2023-01-13T18:59:30.136Z,65.25
2023-01-13T19:01:56.739Z,63.88
2023-01-13T19:04:23.160Z,63.34
2023-01-13T19:06:49.574Z,62.51
2023-01-13T19:09:15.988Z,62.73
2023-01-13T19:11:42.376Z,62.74
2023-01-13T19:14:08.830Z,63.20
2023-01-13T19:16:35.196Z,62.81
2023-01-13T19:19:01.561Z,63.07
2023-01-13T19:21:28.046Z,63.27
2023-01-13T19:23:54.451Z,63.53
2023-01-13T19:26:20.821Z,63.62
2023-01-13T19:28:47.239Z,63.99
2023-01-13T19:31:13.659Z,64.40
2023-01-13T19:33:40.117Z,64.74
2023-01-13T19:36:06.489Z,65.62
2023-01-13T19:38:32.848Z,65.98
2023-01-13T19:40:59.217Z,67.16
2023-01-13T19:43:25.579Z,67.27
2023-01-13T19:45:51.965Z,67.96
2023-01-13T19:48:18.348Z,70.20
2023-01-13T19:50:44.762Z,71.62
2023-01-13T19:53:11.113Z,72.09
2023-01-13T19:55:37.524Z,72.07
2023-01-13T19:58:03.926Z,72.84
2023-01-13T20:00:30.324Z,73.65
2023-01-13T20:02:56.751Z,73.86
2023-01-13T20:05:23.182Z,74.30
2023-01-13T20:07:49.562Z,74.39
2023-01-13T20:10:15.997Z,74.90
2023-01-13T20:12:42.477Z,74.92
2023-01-13T20:15:08.864Z,74.62
2023-01-13T20:17:35.318Z,74.38
2023-01-13T20:20:01.783Z,74.39
2023-01-13T20:22:28.137Z,75.23
2023-01-13T20:24:54.529Z,75.00
2023-01-13T20:27:20.970Z,74.89
2023-01-13T20:29:47.365Z,74.29
2023-01-13T20:32:13.744Z,73.42
2023-01-13T20:34:40.165Z,73.21
2023-01-13T20:37:06.520Z,73.59
2023-01-13T20:39:32.907Z,73.40
2023-01-13T20:41:59.300Z,73.77
2023-01-13T20:44:25.694Z,73.56
2023-01-13T20:46:52.167Z,73.62
2023-01-13T20:49:18.619Z,73.56
2023-01-13T20:51:45.011Z,74.44
2023-01-13T20:54:11.431Z,75.15
2023-01-13T20:56:37.855Z,76.15
2023-01-13T20:59:04.249Z,77.19
2023-01-13T21:01:30.739Z,77.69
2023-01-13T21:03:57.170Z,78.03
2023-01-13T21:06:23.647Z,78.51
2023-01-13T21:08:50.041Z,78.38
2023-01-13T21:11:16.447Z,77.88
2023-01-13T21:13:42.817Z,78.06
2023-01-13T21:16:09.290Z,78.09
2023-01-13T21:18:35.892Z,78.10
2023-01-13T21:21:02.364Z,79.23
2023-01-13T21:23:28.751Z,79.70
2023-01-13T21:25:55.153Z,80.38
2023-01-13T21:28:21.572Z,80.92
2023-01-13T21:30:47.951Z,80.69
2023-01-13T21:33:14.323Z,80.12
2023-01-13T21:35:40.752Z,77.63
2023-01-13T21:38:07.158Z,77.83
2023-01-13T21:40:33.528Z,76.28
2023-01-13T21:43:00.005Z,76.60
2023-01-13T21:45:26.351Z,77.72
2023-01-13T21:47:52.805Z,77.77
2023-01-13T21:50:19.207Z,78.65
2023-01-13T21:52:45.579Z,78.16
2023-01-13T21:55:11.990Z,78.29
2023-01-13T21:57:38.349Z,78.11
2023-01-13T22:00:04.738Z,78.22
2023-01-13T22:02:31.201Z,78.96
2023-01-13T22:04:57.686Z,78.97
2023-01-13T22:07:24.052Z,79.21
2023-01-13T22:09:50.445Z,79.60
2023-01-13T22:12:16.913Z,79.80
2023-01-13T22:14:43.275Z,79.78
2023-01-13T22:17:09.638Z,79.76
2023-01-13T22:19:36.007Z,79.89
2023-01-13T22:22:02.406Z,79.88
2023-01-13T22:24:28.784Z,79.91
2023-01-13T22:26:55.194Z,79.77
2023-01-13T22:29:21.720Z,80.20
2023-01-13T22:31:48.214Z,79.52
2023-01-13T22:34:14.717Z,79.52
2023-01-13T22:36:41.127Z,79.92
2023-01-13T22:39:07.512Z,79.46
2023-01-13T22:41:34.369Z,80.16
2023-01-13T22:44:00.741Z,80.51
2023-01-13T22:46:27.147Z,80.89
2023-01-13T22:48:53.551Z,80.93
2023-01-13T22:51:19.979Z,80.91
2023-01-13T22:53:46.354Z,80.24
2023-01-13T22:56:12.911Z,79.57
2023-01-13T22:58:39.356Z,79.56
2023-01-13T23:01:05.795Z,79.71
2023-01-13T23:03:32.189Z,80.61
2023-01-13T23:05:58.610Z,80.33
2023-01-13T23:08:24.956Z,80.39
2023-01-13T23:10:51.430Z,79.76
2023-01-13T23:13:17.801Z,79.82
2023-01-13T23:15:44.213Z,80.41
2023-01-13T23:18:10.587Z,79.71
2023-01-13T23:20:36.966Z,78.66
2023-01-13T23:23:03.362Z,78.50
2023-01-13T23:25:29.813Z,78.86
2023-01-13T23:27:56.225Z,79.00
2023-01-13T23:30:22.692Z,78.23
2023-01-13T23:32:49.168Z,78.61
2023-01-13T23:35:15.619Z,78.73
2023-01-13T23:37:41.999Z,79.15
2023-01-13T23:40:08.385Z,79.92
2023-01-13T23:42:34.791Z,80.15
2023-01-13T23:45:01.190Z,80.67
2023-01-13T23:47:27.555Z,81.22
2023-01-13T23:49:53.960Z,81.21
2023-01-13T23:52:20.393Z,80.78
2023-01-13T23:54:46.817Z,81.38
2023-01-13T23:57:13.249Z,81.02
2023-01-13T23:59:39.632Z,81.14
